createdAt,value
2019-05-15T00:00:39.422Z,91.80
2019-05-15T00:03:05.046Z,92.00
2019-05-15T00:05:30.565Z,92.10
2019-05-15T00:07:55.947Z,92.00
2019-05-15T00:10:21.424Z,92.40
2019-05-15T00:12:48.690Z,92.00
2019-05-15T00:15:14.342Z,92.00
2019-05-15T00:17:39.748Z,92.30
2019-05-15T00:20:05.595Z,92.30
2019-05-15T00:22:30.904Z,93.10
2019-05-15T00:24:58.159Z,92.40
2019-05-15T00:27:24.027Z,92.30
2019-05-15T00:29:49.534Z,92.40
2019-05-15T00:32:15.216Z,92.80
2019-05-15T00:34:40.633Z,93.20
2019-05-15T00:37:06.088Z,92.90
2019-05-15T00:39:39.029Z,93.00
2019-05-15T00:42:04.662Z,93.50
2019-05-15T00:44:30.132Z,93.60
2019-05-15T00:46:58.095Z,93.30
2019-05-15T00:49:22.944Z,93.20
2019-05-15T00:51:48.808Z,93.70
2019-05-15T00:54:14.376Z,94.00
2019-05-15T00:56:39.806Z,93.70
2019-05-15T00:59:05.258Z,94.30
2019-05-15T01:01:30.732Z,94.30
2019-05-15T01:03:58.426Z,93.90
2019-05-15T01:06:23.561Z,94.30
2019-05-15T01:08:48.992Z,94.40
2019-05-15T01:11:14.720Z,94.20
2019-05-15T01:13:40.173Z,94.50
2019-05-15T01:16:05.699Z,94.40
2019-05-15T01:18:31.166Z,94.80
2019-05-15T01:20:58.689Z,94.90
2019-05-15T01:23:24.034Z,95.00
2019-05-15T01:25:49.388Z,95.10
2019-05-15T01:28:15.115Z,95.10
2019-05-15T01:30:40.543Z,95.20
2019-05-15T01:33:08.279Z,94.90
2019-05-15T01:35:33.114Z,95.20
2019-05-15T01:37:58.893Z,95.20
2019-05-15T01:40:24.611Z,95.60
2019-05-15T01:42:50.122Z,95.60
2019-05-15T01:45:15.983Z,95.60
2019-05-15T01:47:41.442Z,95.30
2019-05-15T01:50:09.219Z,95.80
2019-05-15T01:52:34.280Z,96.00
2019-05-15T01:54:59.730Z,95.90
2019-05-15T01:57:25.222Z,96.00
2019-05-15T01:59:57.218Z,96.30
2019-05-15T02:02:18.713Z,97.00
2019-05-15T02:04:44.280Z,96.80
2019-05-15T02:07:09.721Z,96.80
2019-05-15T02:09:35.256Z,96.80
2019-05-15T02:12:00.598Z,97.00
2019-05-15T02:14:28.332Z,96.90
2019-05-15T02:16:53.464Z,96.80
2019-05-15T02:19:19.380Z,96.90
2019-05-15T02:21:44.994Z,97.10
2019-05-15T02:24:10.451Z,97.20
2019-05-15T02:26:35.876Z,97.10
2019-05-15T02:29:01.539Z,97.00
2019-05-15T02:31:29.831Z,97.50
2019-05-15T02:33:54.186Z,97.80
2019-05-15T02:36:20.714Z,98.00
2019-05-15T02:38:48.688Z,97.80
2019-05-15T02:41:13.819Z,97.40
2019-05-15T02:43:39.508Z,97.40
2019-05-15T02:46:04.979Z,97.40
2019-05-15T02:48:30.440Z,97.30
2019-05-15T02:50:58.650Z,97.10
2019-05-15T02:53:22.910Z,96.90
2019-05-15T02:55:49.586Z,97.40
2019-05-15T02:58:15.220Z,97.20
2019-05-15T03:00:48.233Z,97.00
2019-05-15T03:03:09.436Z,97.50
2019-05-15T03:05:35.123Z,97.70
2019-05-15T03:08:00.545Z,97.50
2019-05-15T03:10:29.409Z,97.70
2019-05-15T03:12:53.467Z,98.20
2019-05-15T03:15:19.514Z,98.40
2019-05-15T03:17:45.055Z,98.60
2019-05-15T03:20:11.890Z,98.70
2019-05-15T03:22:40.015Z,99.10
2019-05-15T03:25:04.963Z,99.50
2019-05-15T03:27:34.339Z,99.50
2019-05-15T03:29:59.379Z,99.60
2019-05-15T03:32:40.433Z,99.60
2019-05-15T03:34:56.483Z,99.30
2019-05-15T03:37:22.144Z,99.90
2019-05-15T03:39:51.614Z,99.80
2019-05-15T03:42:14.279Z,99.70
2019-05-15T03:44:39.835Z,99.80
2019-05-15T03:47:05.292Z,99.00
2019-05-15T03:49:30.723Z,99.00
2019-05-15T03:51:58.781Z,99.10
2019-05-15T03:54:23.795Z,98.70
2019-05-15T03:56:50.106Z,98.40
2019-05-15T03:59:15.788Z,98.70
2019-05-15T04:01:43.850Z,98.40
2019-05-15T04:04:09.567Z,98.50
2019-05-15T04:06:38.840Z,97.70
2019-05-15T04:09:02.882Z,98.10
2019-05-15T04:11:29.417Z,97.70
2019-05-15T04:13:55.277Z,97.60
2019-05-15T04:16:20.691Z,97.80
2019-05-15T04:18:49.122Z,97.40
2019-05-15T04:21:20.017Z,97.90
2019-05-15T04:23:50.118Z,97.70
2019-05-15T04:26:15.916Z,97.70
2019-05-15T04:28:42.795Z,97.40
2019-05-15T04:31:09.389Z,97.70
2019-05-15T04:33:35.283Z,97.60
2019-05-15T04:36:00.705Z,98.30
2019-05-15T04:38:28.923Z,97.60
2019-05-15T04:40:53.174Z,98.10
2019-05-15T04:43:19.423Z,97.90
2019-05-15T04:45:45.377Z,98.10
2019-05-15T04:48:10.818Z,98.30
2019-05-15T04:50:39.545Z,98.00
2019-05-15T04:53:03.749Z,98.30
2019-05-15T04:55:29.312Z,98.40
2019-05-15T04:57:54.800Z,98.60
2019-05-15T05:00:49.547Z,98.40
2019-05-15T05:03:14.405Z,98.20
2019-05-15T05:05:40.778Z,98.40
2019-05-15T05:08:09.093Z,98.30
2019-05-15T05:10:33.397Z,98.60
2019-05-15T05:12:59.151Z,98.80
2019-05-15T05:15:24.987Z,98.40
2019-05-15T05:17:50.442Z,97.80
2019-05-15T05:20:17.892Z,98.00
2019-05-15T05:22:43.090Z,96.80
2019-05-15T05:25:08.555Z,97.20
2019-05-15T05:27:34.023Z,96.60
2019-05-15T05:29:59.461Z,96.60
2019-05-15T05:32:31.947Z,96.70
2019-05-15T05:34:52.274Z,96.20
2019-05-15T05:37:18.455Z,95.70
2019-05-15T05:39:43.939Z,95.90
2019-05-15T05:42:13.745Z,96.20
2019-05-15T05:44:42.548Z,96.10
2019-05-15T05:47:09.124Z,96.20
2019-05-15T05:49:33.629Z,95.70
2019-05-15T05:51:59.559Z,95.80
2019-05-15T05:54:25.174Z,96.10
2019-05-15T05:56:51.323Z,96.00
2019-05-15T05:59:18.601Z,95.30
2019-05-15T06:01:44.477Z,95.00
2019-05-15T06:04:09.941Z,95.20
2019-05-15T06:06:38.464Z,94.70
2019-05-15T06:09:04.282Z,94.30
2019-05-15T06:11:30.187Z,94.50
2019-05-15T06:13:58.240Z,93.30
2019-05-15T06:16:22.876Z,93.10
2019-05-15T06:18:51.674Z,92.50
2019-05-15T06:21:17.960Z,91.30
2019-05-15T06:23:46.221Z,92.10
2019-05-15T06:26:10.916Z,91.20
2019-05-15T06:28:39.138Z,91.60
2019-05-15T06:31:08.734Z,90.70
2019-05-15T06:33:34.798Z,90.80
2019-05-15T06:36:00.273Z,89.30
2019-05-15T06:38:30.765Z,89.80
2019-05-15T06:40:54.114Z,90.10
2019-05-15T06:43:20.320Z,88.00
2019-05-15T06:45:48.473Z,91.20
2019-05-15T06:48:13.914Z,90.00
2019-05-15T06:50:42.491Z,84.80
2019-05-15T06:53:10.859Z,83.50
2019-05-15T06:55:38.630Z,82.10
2019-05-15T06:58:04.211Z,79.50
2019-05-15T07:00:29.994Z,79.50
2019-05-15T07:02:58.120Z,81.50
2019-05-15T07:05:22.805Z,77.60
2019-05-15T07:07:48.846Z,71.10
2019-05-15T07:10:14.577Z,83.50
2019-05-15T07:12:40.119Z,81.40
2019-05-15T07:15:06.129Z,80.40
2019-05-15T07:17:36.193Z,83.70
2019-05-15T07:20:01.999Z,76.80
2019-05-15T07:22:28.971Z,77.40
2019-05-15T07:24:54.659Z,79.10
2019-05-15T07:27:20.188Z,74.60
2019-05-15T07:29:45.741Z,75.90
2019-05-15T07:32:11.121Z,70.00
2019-05-15T07:34:37.894Z,70.20
2019-05-15T07:37:03.519Z,70.80
2019-05-15T07:39:29.035Z,72.50
2019-05-15T07:41:54.548Z,72.40
2019-05-15T07:44:20.102Z,72.60
2019-05-15T07:46:45.587Z,68.40
2019-05-15T07:49:11.343Z,69.30
2019-05-15T07:51:38.153Z,68.50
2019-05-15T07:54:03.820Z,74.30
2019-05-15T07:56:29.310Z,63.10
2019-05-15T07:58:54.827Z,64.40
2019-05-15T08:01:20.274Z,65.10
2019-05-15T08:03:56.628Z,65.40
2019-05-15T08:06:13.011Z,60.10
2019-05-15T08:08:39.307Z,56.10
2019-05-15T08:11:17.524Z,56.40
2019-05-15T08:13:32.344Z,57.50
2019-05-15T08:16:01.063Z,56.90
2019-05-15T08:18:28.538Z,55.60
2019-05-15T08:20:53.882Z,56.30
2019-05-15T08:23:19.834Z,56.10
2019-05-15T08:25:45.244Z,58.50
2019-05-15T08:28:10.721Z,59.90
2019-05-15T08:30:38.124Z,56.60
2019-05-15T08:33:03.762Z,57.70
2019-05-15T08:35:29.352Z,56.50
2019-05-15T08:37:54.865Z,56.40
2019-05-15T08:40:20.592Z,55.80
2019-05-15T08:42:54.540Z,54.00
2019-05-15T08:45:13.942Z,51.60
2019-05-15T08:47:39.420Z,52.10
2019-05-15T08:50:05.676Z,52.20
2019-05-15T08:52:31.150Z,52.20
2019-05-15T08:54:58.857Z,52.70
2019-05-15T08:57:23.980Z,54.10
2019-05-15T08:59:49.394Z,53.60
2019-05-15T09:02:14.982Z,53.00
2019-05-15T09:04:40.459Z,52.80
2019-05-15T09:07:05.929Z,52.80
2019-05-15T09:09:31.385Z,54.40
2019-05-15T09:11:58.521Z,57.10
2019-05-15T09:14:24.140Z,55.70
2019-05-15T09:16:49.861Z,53.20
2019-05-15T09:19:15.313Z,53.50
2019-05-15T09:21:40.767Z,53.90
2019-05-15T09:24:09.143Z,56.00
2019-05-15T09:26:35.496Z,53.40
2019-05-15T09:29:01.257Z,56.40
2019-05-15T09:31:28.413Z,54.10
2019-05-15T09:33:53.904Z,57.30
2019-05-15T09:36:20.144Z,54.40
2019-05-15T09:38:48.860Z,55.70
2019-05-15T09:41:13.441Z,55.50
2019-05-15T09:43:42.151Z,55.60
2019-05-15T09:46:08.153Z,56.60
2019-05-15T09:48:33.235Z,58.20
2019-05-15T09:50:58.934Z,58.20
2019-05-15T09:53:24.426Z,56.50
2019-05-15T09:55:50.027Z,57.20
2019-05-15T09:58:15.497Z,56.50
2019-05-15T10:00:40.995Z,57.10
2019-05-15T10:03:09.363Z,58.00
2019-05-15T10:05:33.742Z,56.60
2019-05-15T10:08:00.232Z,55.50
2019-05-15T10:10:25.691Z,56.50
2019-05-15T10:12:51.114Z,56.50
2019-05-15T10:15:18.573Z,57.90
2019-05-15T10:17:45.726Z,58.20
2019-05-15T10:20:11.539Z,57.40
2019-05-15T10:22:37.006Z,56.10
2019-05-15T10:25:02.494Z,57.10
2019-05-15T10:27:28.682Z,57.00
2019-05-15T10:29:55.000Z,57.10
2019-05-15T10:32:20.469Z,57.30
2019-05-15T10:34:45.990Z,57.70
2019-05-15T10:37:11.427Z,56.20
2019-05-15T10:39:38.433Z,57.40
2019-05-15T10:42:04.152Z,57.10
2019-05-15T10:44:29.643Z,59.00
2019-05-15T10:46:55.341Z,57.30
2019-05-15T10:49:20.809Z,58.10
2019-05-15T10:51:46.264Z,55.20
2019-05-15T10:54:11.961Z,56.30
2019-05-15T10:56:38.539Z,55.30
2019-05-15T10:59:04.209Z,56.20
2019-05-15T11:01:29.650Z,57.50
2019-05-15T11:03:55.110Z,56.20
2019-05-15T11:06:20.535Z,56.70
2019-05-15T11:08:51.061Z,54.80
2019-05-15T11:11:13.167Z,56.90
2019-05-15T11:13:38.606Z,57.30
2019-05-15T11:16:04.412Z,55.70
2019-05-15T11:18:30.775Z,58.60
2019-05-15T11:20:58.593Z,55.30
2019-05-15T11:23:23.494Z,55.40
2019-05-15T11:25:49.047Z,54.90
2019-05-15T11:28:14.870Z,55.30
2019-05-15T11:30:40.368Z,54.80
2019-05-15T11:33:06.129Z,55.10
2019-05-15T11:35:31.888Z,54.70
2019-05-15T11:37:57.315Z,56.30
2019-05-15T11:40:23.361Z,56.20
2019-05-15T11:42:48.894Z,55.70
2019-05-15T11:45:18.314Z,55.70
2019-05-15T11:47:43.302Z,55.40
2019-05-15T11:50:10.311Z,56.60
2019-05-15T11:52:37.339Z,56.60
2019-05-15T11:55:02.928Z,58.10
2019-05-15T11:57:39.239Z,55.40
2019-05-15T11:59:58.822Z,54.30
2019-05-15T12:02:22.792Z,53.00
2019-05-15T12:04:48.479Z,54.10
2019-05-15T12:07:14.341Z,53.60
2019-05-15T12:09:39.817Z,54.70
2019-05-15T12:12:05.365Z,52.10
2019-05-15T12:14:30.849Z,52.30
2019-05-15T12:17:06.998Z,52.30
2019-05-15T12:19:23.542Z,53.30
2019-05-15T12:21:50.008Z,54.10
2019-05-15T12:24:15.490Z,54.80
2019-05-15T12:26:40.872Z,54.10
2019-05-15T12:29:09.559Z,52.40
2019-05-15T12:31:33.543Z,52.70
2019-05-15T12:33:59.011Z,52.90
2019-05-15T12:38:51.873Z,52.60
2019-05-15T13:00:57.992Z,52.80
2019-05-15T13:03:23.548Z,52.90
2019-05-15T13:05:49.007Z,52.70
2019-05-15T13:08:14.538Z,51.80
2019-05-15T13:10:40.014Z,53.20
2019-05-15T13:13:08.983Z,51.90
2019-05-15T13:15:33.215Z,53.30
2019-05-15T13:17:59.665Z,52.50
2019-05-15T13:20:25.217Z,53.60
2019-05-15T13:25:18.863Z,53.20
2019-05-15T13:27:43.904Z,53.40
2019-05-15T13:30:10.019Z,54.20
2019-05-15T13:32:35.633Z,53.00
2019-05-15T13:35:01.372Z,52.30
2019-05-15T13:37:30.578Z,52.40
2019-05-15T13:39:54.156Z,53.20
2019-05-15T13:42:19.588Z,52.40
2019-05-15T13:44:44.944Z,52.80
2019-05-15T13:47:10.499Z,51.70
2019-05-15T13:49:35.931Z,51.80
2019-05-15T13:52:01.380Z,51.30
2019-05-15T13:54:28.583Z,51.90
2019-05-15T13:56:53.971Z,53.20
2019-05-15T13:59:19.428Z,53.60
2019-05-15T14:01:44.900Z,52.70
2019-05-15T14:04:10.323Z,52.60
2019-05-15T14:06:38.099Z,51.50
2019-05-15T14:09:05.765Z,50.80
2019-05-15T14:11:31.694Z,52.40
2019-05-15T14:13:59.473Z,51.50
2019-05-15T14:16:24.324Z,51.50
2019-05-15T14:18:49.771Z,52.50
2019-05-15T14:21:15.219Z,51.50
2019-05-15T14:23:40.746Z,53.40
2019-05-15T14:26:17.740Z,52.70
2019-05-15T14:28:33.664Z,52.50
2019-05-15T14:30:59.205Z,52.30
2019-05-15T14:33:24.765Z,53.10
2019-05-15T14:35:51.283Z,53.60
2019-05-15T14:38:18.662Z,53.00
2019-05-15T14:40:44.488Z,53.80
2019-05-15T14:43:09.978Z,54.20
2019-05-15T14:45:35.446Z,53.60
2019-05-15T14:48:00.888Z,52.60
2019-05-15T14:50:38.667Z,53.80
2019-05-15T14:53:04.116Z,54.20
2019-05-15T14:55:33.634Z,54.10
2019-05-15T14:57:58.778Z,54.20
2019-05-15T15:00:28.997Z,53.40
2019-05-15T15:02:51.845Z,53.80
2019-05-15T15:05:21.582Z,54.10
2019-05-15T15:07:44.853Z,53.90
2019-05-15T15:10:10.694Z,53.60
2019-05-15T15:12:39.113Z,54.40
2019-05-15T15:15:03.647Z,54.60
2019-05-15T15:17:29.104Z,53.30
2019-05-15T15:19:54.784Z,52.70
2019-05-15T15:26:24.252Z,52.80
2019-05-15T15:28:52.849Z,53.10
2019-05-15T15:31:19.149Z,53.20
2019-05-15T15:33:44.709Z,52.80
2019-05-15T15:36:10.163Z,53.70
2019-05-15T15:38:43.183Z,54.90
2019-05-15T15:41:02.724Z,52.90
2019-05-15T15:43:30.209Z,53.40
2019-05-15T15:45:57.932Z,53.70
2019-05-15T15:48:22.837Z,53.60
2019-05-15T15:50:48.778Z,53.50
2019-05-15T15:53:14.245Z,54.30
2019-05-15T15:55:39.905Z,54.40
2019-05-15T15:58:05.378Z,54.90
2019-05-15T16:00:30.799Z,55.90
2019-05-15T16:02:56.668Z,55.50
2019-05-15T16:05:22.105Z,54.70
2019-05-15T16:07:48.593Z,54.00
2019-05-15T16:10:14.218Z,54.30
2019-05-15T16:12:39.662Z,53.50
2019-05-15T16:15:05.593Z,54.00
2019-05-15T16:17:31.479Z,54.00
2019-05-15T16:19:57.112Z,54.40
2019-05-15T16:22:22.588Z,55.00
2019-05-15T16:24:49.156Z,56.00
2019-05-15T16:27:14.799Z,55.40
2019-05-15T16:29:40.240Z,55.10
2019-05-15T16:32:05.719Z,54.80
2019-05-15T16:34:31.161Z,54.50
2019-05-15T16:36:58.532Z,54.80
2019-05-15T16:39:24.127Z,55.20
2019-05-15T16:41:49.586Z,56.10
2019-05-15T16:44:15.044Z,55.60
2019-05-15T16:46:40.707Z,55.80
2019-05-15T16:49:06.224Z,56.10
2019-05-15T16:51:32.533Z,55.50
2019-05-15T16:53:58.236Z,55.30
2019-05-15T16:56:23.731Z,55.30
2019-05-15T16:58:49.182Z,56.50
2019-05-15T17:01:14.531Z,55.50
2019-05-15T17:03:40.006Z,54.90
2019-05-15T17:06:05.451Z,55.30
2019-05-15T17:08:32.307Z,55.30
2019-05-15T17:10:58.661Z,55.10
2019-05-15T17:13:24.395Z,55.40
2019-05-15T17:15:49.978Z,54.80
2019-05-15T17:18:17.964Z,56.30
2019-05-15T17:20:42.715Z,55.30
2019-05-15T17:23:08.763Z,56.10
2019-05-15T17:25:37.980Z,55.60
2019-05-15T17:28:02.584Z,55.50
2019-05-15T17:30:28.785Z,55.30
2019-05-15T17:32:54.850Z,55.40
2019-05-15T17:35:20.305Z,55.60
2019-05-15T17:37:48.569Z,56.00
2019-05-15T17:40:14.609Z,56.60
2019-05-15T17:42:40.339Z,55.90
2019-05-15T17:45:09.550Z,55.70
2019-05-15T17:47:38.801Z,56.20
2019-05-15T17:50:04.713Z,56.50
2019-05-15T17:52:30.476Z,57.60
2019-05-15T17:54:55.911Z,57.00
2019-05-15T17:57:21.411Z,56.80
2019-05-15T17:59:48.611Z,55.90
2019-05-15T18:02:14.340Z,55.80
2019-05-15T18:04:39.951Z,55.40
2019-05-15T18:07:05.493Z,56.20
2019-05-15T18:09:31.249Z,55.30
2019-05-15T18:11:58.593Z,55.30
2019-05-15T18:14:24.311Z,56.70
2019-05-15T18:16:50.963Z,55.70
2019-05-15T18:19:18.775Z,56.00
2019-05-15T18:21:44.040Z,56.20
2019-05-15T18:24:09.591Z,56.70
2019-05-15T18:26:35.556Z,56.40
2019-05-15T18:29:00.941Z,56.50
2019-05-15T18:31:28.500Z,56.80
2019-05-15T18:33:55.622Z,57.60
2019-05-15T18:36:21.224Z,57.40
2019-05-15T18:38:48.220Z,57.00
2019-05-15T18:41:13.918Z,57.40
2019-05-15T18:43:40.186Z,58.10
2019-05-15T18:46:05.756Z,57.90
2019-05-15T18:48:32.243Z,57.70
2019-05-15T18:50:58.768Z,57.60
2019-05-15T18:53:25.100Z,57.90
2019-05-15T18:55:50.576Z,58.30
2019-05-15T18:58:19.064Z,58.70
2019-05-15T19:00:43.960Z,58.70
2019-05-15T19:03:18.793Z,59.10
2019-05-15T19:05:38.670Z,59.50
2019-05-15T19:08:03.935Z,59.00
2019-05-15T19:10:29.450Z,58.80
2019-05-15T19:12:54.896Z,61.10
2019-05-15T19:15:20.576Z,60.00
2019-05-15T19:17:47.825Z,59.70
2019-05-15T19:20:13.794Z,61.10
2019-05-15T19:22:41.033Z,60.30
2019-05-15T19:25:08.889Z,63.30
2019-05-15T19:27:34.256Z,62.60
2019-05-15T19:30:01.176Z,65.80
2019-05-15T19:32:27.910Z,66.50
2019-05-15T19:34:53.662Z,65.90
2019-05-15T19:37:19.535Z,67.80
2019-05-15T19:39:45.128Z,68.50
2019-05-15T19:42:11.007Z,65.10
2019-05-15T19:44:37.781Z,65.60
2019-05-15T19:47:03.503Z,66.80
2019-05-15T19:49:30.015Z,69.00
2019-05-15T19:51:57.942Z,66.50
2019-05-15T19:54:23.328Z,66.40
2019-05-15T19:56:48.673Z,66.50
2019-05-15T19:59:14.400Z,64.10
2019-05-15T20:01:39.900Z,65.20
2019-05-15T20:04:05.342Z,63.80
2019-05-15T20:06:32.583Z,63.00
2019-05-15T20:08:58.613Z,65.70
2019-05-15T20:11:24.308Z,64.10
2019-05-15T20:13:49.765Z,63.30
2019-05-15T20:16:18.150Z,62.80
2019-05-15T20:18:42.412Z,63.30
2019-05-15T20:21:08.882Z,64.60
2019-05-15T20:23:34.683Z,63.20
2019-05-15T20:26:08.376Z,63.60
2019-05-15T20:28:34.234Z,65.80
2019-05-15T20:30:59.711Z,63.70
2019-05-15T20:33:25.151Z,64.30
2019-05-15T20:35:50.631Z,64.90
2019-05-15T20:38:16.071Z,64.70
2019-05-15T20:40:41.539Z,66.10
2019-05-15T20:43:08.212Z,65.40
2019-05-15T20:45:33.852Z,66.60
2019-05-15T20:47:59.288Z,67.30
2019-05-15T20:50:24.806Z,66.10
2019-05-15T20:52:50.456Z,65.90
2019-05-15T20:55:16.021Z,68.70
2019-05-15T20:57:42.291Z,67.20
2019-05-15T21:00:13.106Z,68.50
2019-05-15T21:02:38.708Z,67.60
2019-05-15T21:05:04.574Z,67.90
2019-05-15T21:07:38.112Z,67.50
2019-05-15T21:09:58.820Z,68.40
2019-05-15T21:12:27.083Z,69.70
2019-05-15T21:14:52.429Z,68.40
2019-05-15T21:17:19.897Z,68.10
2019-05-15T21:19:45.125Z,69.30
2019-05-15T21:22:11.147Z,67.80
2019-05-15T21:24:37.809Z,68.30
2019-05-15T21:27:03.394Z,68.10
2019-05-15T21:29:28.895Z,69.30
2019-05-15T21:31:54.378Z,68.10
2019-05-15T21:34:36.617Z,68.80
2019-05-15T21:36:52.075Z,70.00
2019-05-15T21:39:16.691Z,69.20
2019-05-15T21:41:42.142Z,71.60
2019-05-15T21:44:08.569Z,70.70
2019-05-15T21:46:34.250Z,72.00
2019-05-15T21:49:00.871Z,71.90
2019-05-15T21:51:28.142Z,73.60
2019-05-15T21:53:53.693Z,73.60
2019-05-15T21:56:19.167Z,73.80
2019-05-15T21:58:44.857Z,73.90
2019-05-15T22:01:11.355Z,75.20
2019-05-15T22:03:38.877Z,74.80
2019-05-15T22:06:04.853Z,73.80
2019-05-15T22:08:30.351Z,73.40
2019-05-15T22:10:55.874Z,73.80
2019-05-15T22:13:21.337Z,73.20
2019-05-15T22:15:47.903Z,71.70
2019-05-15T22:18:14.363Z,71.30
2019-05-15T22:20:40.566Z,71.80
2019-05-15T22:23:08.089Z,71.10
2019-05-15T22:25:33.895Z,72.80
2019-05-15T22:27:59.639Z,72.50
2019-05-15T22:30:29.658Z,72.80
2019-05-15T22:32:52.601Z,74.90
2019-05-15T22:35:20.699Z,74.70
2019-05-15T22:37:46.221Z,73.90
2019-05-15T22:40:13.303Z,74.00
2019-05-15T22:42:39.337Z,74.20
2019-05-15T22:45:05.774Z,75.00
2019-05-15T22:47:31.232Z,75.00
2019-05-15T22:49:58.932Z,74.90
2019-05-15T22:52:24.228Z,75.50
2019-05-15T22:54:49.845Z,75.70
2019-05-15T22:57:15.315Z,76.40
2019-05-15T22:59:41.128Z,76.00
2019-05-15T23:02:09.146Z,77.00
2019-05-15T23:04:34.097Z,76.90
2019-05-15T23:06:59.594Z,77.00
2019-05-15T23:09:25.322Z,77.80
2019-05-15T23:11:50.810Z,77.50
2019-05-15T23:14:18.086Z,76.80
2019-05-15T23:16:43.638Z,77.80
2019-05-15T23:19:09.398Z,78.30
2019-05-15T23:21:37.165Z,77.40
2019-05-15T23:24:02.016Z,78.00
2019-05-15T23:26:28.295Z,78.80
2019-05-15T23:28:53.772Z,78.10
2019-05-15T23:31:19.273Z,79.80
2019-05-15T23:33:44.759Z,78.80
2019-05-15T23:36:10.294Z,79.60
2019-05-15T23:38:35.786Z,79.70
2019-05-15T23:41:01.546Z,79.50
2019-05-15T23:43:28.247Z,80.90
2019-05-15T23:45:54.392Z,81.60
2019-05-15T23:48:19.903Z,83.10
2019-05-15T23:50:45.417Z,83.90
2019-05-15T23:53:10.902Z,83.20
2019-05-15T23:55:36.398Z,83.30
2019-05-15T23:58:02.168Z,83.80
